Time;durP1;ratioP1;P1;durP2;ratioP2;P2;SDS_P1;SDS_P2;PMS_P1;PMS_P2;Temp;Humidity;BMP_temperature;BMP_pressure;BME280_temperature;BME280_humidity;BME280_pressure;Samples;Min_cycle;Max_cycle;Signal;HPM_P1;HPM_P2
2022/01/09 00:00:46;;;;;;;17.63;1.98;;;4.10;99.90;;;;;;4976391;28;20031;-92
2022/01/09 00:03:12;;;;;;;20.60;2.78;;;4.10;99.90;;;;;;4976955;28;20030;-93
2022/01/09 00:05:38;;;;;;;11.15;1.38;;;4.10;99.90;;;;;;4976957;28;20119;-91
2022/01/09 00:08:04;;;;;;;13.15;2.00;;;4.10;99.90;;;;;;4976673;28;20023;-92
2022/01/09 00:10:32;;;;;;;9.68;1.40;;;4.10;99.90;;;;;;4976730;28;20524;-93
2022/01/09 00:12:58;;;;;;;10.82;1.55;;;4.10;99.90;;;;;;4977385;28;20034;-91
2022/01/09 00:15:24;;;;;;;17.02;2.45;;;4.10;99.90;;;;;;4977094;28;20070;-92
2022/01/09 00:17:50;;;;;;;12.80;2.42;;;4.10;99.90;;;;;;4977149;28;20026;-92
2022/01/09 00:20:15;;;;;;;11.07;2.00;;;4.10;99.90;;;;;;4976746;28;20050;-91
2022/01/09 00:22:46;;;;;;;14.07;2.45;;;4.10;99.90;;;;;;4976908;28;20022;-92
2022/01/09 00:25:13;;;;;;;15.27;2.60;;;4.10;99.90;;;;;;4976819;28;20037;-91
2022/01/09 00:27:39;;;;;;;11.48;2.00;;;4.10;99.90;;;;;;4976347;28;20105;-93
2022/01/09 00:30:07;;;;;;;11.93;2.42;;;4.10;99.90;;;;;;4976267;28;20031;-93
2022/01/09 00:32:33;;;;;;;19.58;2.20;;;4.10;99.90;;;;;;4976361;28;20027;-93
2022/01/09 00:34:59;;;;;;;24.92;2.40;;;4.10;99.90;;;;;;4976138;28;20035;-92
2022/01/09 00:37:25;;;;;;;15.63;2.50;;;4.10;99.90;;;;;;4976892;28;20030;-92
2022/01/09 00:39:51;;;;;;;15.65;2.45;;;4.10;99.90;;;;;;4976743;28;20611;-92
2022/01/09 00:42:18;;;;;;;17.13;2.10;;;4.20;99.90;;;;;;4976641;28;20026;-91
2022/01/09 00:44:44;;;;;;;33.13;3.03;;;4.20;99.90;;;;;;4976843;28;20030;-91
2022/01/09 00:47:10;;;;;;;13.90;2.08;;;4.20;99.90;;;;;;4976878;28;20033;-90
2022/01/09 00:49:35;;;;;;;16.80;2.97;;;4.10;99.90;;;;;;4976657;28;20044;-93
2022/01/09 00:52:01;;;;;;;17.48;2.30;;;4.20;99.90;;;;;;4976583;28;20026;-94
2022/01/09 00:54:27;;;;;;;14.25;1.95;;;4.20;99.90;;;;;;4976596;28;20050;-92
2022/01/09 00:56:53;;;;;;;21.17;2.63;;;4.20;99.90;;;;;;4976450;28;20054;-92
2022/01/09 00:59:18;;;;;;;16.73;2.35;;;4.20;99.90;;;;;;4975325;28;20129;-92
2022/01/09 01:01:44;;;;;;;15.38;2.50;;;4.10;99.90;;;;;;4976532;28;20046;-90
2022/01/09 01:04:10;;;;;;;17.25;2.35;;;4.20;99.90;;;;;;4976372;28;20037;-92
2022/01/09 01:06:35;;;;;;;16.98;2.40;;;4.10;99.90;;;;;;4976330;28;20484;-91
2022/01/09 01:09:01;;;;;;;19.30;2.60;;;4.20;99.90;;;;;;4976266;28;20027;-91
2022/01/09 01:11:27;;;;;;;29.95;2.90;;;4.20;99.90;;;;;;4976396;28;20031;-91
2022/01/09 01:13:52;;;;;;;20.80;2.35;;;4.10;99.90;;;;;;4976016;28;20018;-93
2022/01/09 01:16:18;;;;;;;11.88;2.58;;;4.20;99.90;;;;;;4976093;28;20034;-92
2022/01/09 01:18:45;;;;;;;12.90;2.30;;;4.20;99.90;;;;;;4975739;28;20121;-92
2022/01/09 01:21:12;;;;;;;23.63;3.38;;;4.20;99.90;;;;;;4976157;28;20039;-91
2022/01/09 01:23:38;;;;;;;12.70;2.00;;;4.20;99.90;;;;;;4975997;28;20098;-93
2022/01/09 01:26:03;;;;;;;17.63;2.53;;;4.20;99.90;;;;;;4975961;28;20058;-93
2022/01/09 01:28:30;;;;;;;11.60;1.88;;;4.20;99.90;;;;;;4975655;28;20030;-93
2022/01/09 01:30:56;;;;;;;19.27;2.35;;;4.10;99.90;;;;;;4976226;28;20476;-93
2022/01/09 01:33:22;;;;;;;12.45;2.65;;;4.10;99.90;;;;;;4976051;28;20035;-93
2022/01/09 01:35:48;;;;;;;18.20;2.00;;;4.00;99.90;;;;;;4975923;28;20023;-91
2022/01/09 01:38:14;;;;;;;23.95;2.47;;;4.00;99.90;;;;;;4975690;28;20478;-91
2022/01/09 01:40:40;;;;;;;16.75;2.10;;;3.90;99.90;;;;;;4978691;28;20043;-91
2022/01/09 01:43:07;;;;;;;16.83;2.58;;;4.00;99.90;;;;;;4975434;28;20023;-92
2022/01/09 01:45:33;;;;;;;24.23;2.78;;;3.90;99.90;;;;;;4975803;28;20027;-92
2022/01/09 01:48:06;;;;;;;20.10;2.30;;;3.90;99.90;;;;;;4975365;28;20040;-94
2022/01/09 01:50:37;;;;;;;15.80;2.22;;;4.00;99.90;;;;;;4975361;28;20395;-93
2022/01/09 01:53:10;;;;;;;17.67;2.75;;;3.90;99.90;;;;;;4975655;28;20069;-90
2022/01/09 01:55:38;;;;;;;19.55;2.97;;;3.90;99.90;;;;;;4975406;28;20059;-91
2022/01/09 01:58:05;;;;;;;12.60;2.40;;;3.90;99.90;;;;;;4975525;28;20045;-90
2022/01/09 02:00:31;;;;;;;20.95;3.33;;;3.90;99.90;;;;;;4976146;28;20129;-92
2022/01/09 02:02:57;;;;;;;14.75;2.70;;;3.90;99.90;;;;;;4978453;28;20031;-92
2022/01/09 02:05:22;;;;;;;15.50;2.45;;;3.90;99.90;;;;;;4981126;28;20034;-93
2022/01/09 02:07:51;;;;;;;19.20;2.60;;;3.90;99.90;;;;;;4979991;28;20472;-92
2022/01/09 02:10:17;;;;;;;19.92;3.63;;;3.90;99.90;;;;;;4976688;28;20408;-91
2022/01/09 02:12:44;;;;;;;22.25;3.00;;;4.00;99.90;;;;;;4958332;28;20102;-90
2022/01/09 02:15:42;;;;;;;16.02;3.65;;;4.00;99.90;;;;;;4958021;28;20031;-91
2022/01/09 02:18:10;;;;;;;18.42;2.78;;;4.00;99.90;;;;;;4962442;28;20062;-91
2022/01/09 02:20:37;;;;;;;26.23;2.60;;;4.10;99.90;;;;;;4962533;28;20050;-91
2022/01/09 02:23:06;;;;;;;14.85;2.50;;;4.00;99.90;;;;;;4958835;28;20031;-91
2022/01/09 02:25:32;;;;;;;21.92;2.78;;;4.10;99.90;;;;;;4958768;28;20118;-92
2022/01/09 02:32:51;;;;;;;10.70;2.17;;;4.10;99.90;;;;;;4942968;28;20050;-90
2022/01/09 02:35:17;;;;;;;23.45;2.78;;;4.10;99.90;;;;;;4958851;28;20081;-91
2022/01/09 02:37:43;;;;;;;10.43;1.95;;;4.10;99.90;;;;;;4959073;28;20019;-91
2022/01/09 02:40:09;;;;;;;20.13;2.63;;;4.00;99.90;;;;;;4959040;28;20046;-91
2022/01/09 02:42:35;;;;;;;13.40;2.60;;;4.10;99.90;;;;;;4959074;28;20034;-91
2022/01/09 02:45:01;;;;;;;15.38;2.30;;;4.10;99.90;;;;;;4967853;28;20400;-91
2022/01/09 02:47:30;;;;;;;20.23;2.78;;;4.10;99.90;;;;;;4977282;28;20062;-91
2022/01/09 02:50:02;;;;;;;23.63;2.65;;;4.10;99.90;;;;;;4969217;28;20111;-91
2022/01/09 02:52:36;;;;;;;22.23;4.13;;;4.10;99.90;;;;;;4959351;28;20037;-92
2022/01/09 02:55:10;;;;;;;23.00;3.17;;;4.10;99.90;;;;;;4957986;28;20035;-90
2022/01/09 02:57:37;;;;;;;20.35;2.38;;;4.10;99.90;;;;;;4958286;28;20031;-91
2022/01/09 03:00:10;;;;;;;20.23;2.10;;;4.10;99.90;;;;;;4957882;28;20027;-92
2022/01/09 03:02:36;;;;;;;22.60;3.42;;;4.10;99.90;;;;;;4958029;28;20030;-92
2022/01/09 03:05:02;;;;;;;22.80;3.35;;;4.10;99.90;;;;;;4958140;28;20026;-91
2022/01/09 03:07:28;;;;;;;15.85;2.30;;;4.10;99.90;;;;;;4958272;28;20035;-92
2022/01/09 03:09:54;;;;;;;14.18;2.40;;;4.10;99.90;;;;;;4957928;28;20023;-90
2022/01/09 03:12:20;;;;;;;18.15;2.30;;;4.20;99.90;;;;;;4957892;28;20039;-91
2022/01/09 03:14:46;;;;;;;18.00;2.00;;;4.20;99.90;;;;;;4958023;28;20114;-91
2022/01/09 03:17:12;;;;;;;18.20;3.03;;;4.10;99.90;;;;;;4957903;28;20038;-90
2022/01/09 03:19:37;;;;;;;15.38;2.33;;;4.10;99.90;;;;;;4958052;28;20046;-91
2022/01/09 03:22:03;;;;;;;14.13;2.03;;;4.10;99.90;;;;;;4960093;28;20692;-93
2022/01/09 03:24:29;;;;;;;18.45;2.13;;;4.10;99.90;;;;;;4964788;28;20091;-90
2022/01/09 03:26:55;;;;;;;28.35;2.35;;;4.10;99.90;;;;;;4970600;28;20064;-91
2022/01/09 03:29:20;;;;;;;27.13;3.08;;;4.10;99.90;;;;;;4964084;28;20027;-90
2022/01/09 03:31:46;;;;;;;19.35;2.53;;;4.10;99.90;;;;;;4961477;28;20045;-92
2022/01/09 03:34:12;;;;;;;12.85;2.03;;;4.10;99.90;;;;;;4961904;28;20034;-91
2022/01/09 03:36:38;;;;;;;19.77;2.90;;;4.10;99.90;;;;;;4961449;28;20027;-91
2022/01/09 03:39:04;;;;;;;19.88;2.80;;;4.10;99.90;;;;;;4961869;28;20041;-91
2022/01/09 03:41:30;;;;;;;15.65;3.13;;;4.10;99.90;;;;;;4961655;28;20038;-91
2022/01/09 03:43:55;;;;;;;19.55;3.65;;;4.10;99.90;;;;;;4961649;28;20031;-91
2022/01/09 03:46:21;;;;;;;28.77;3.03;;;4.10;99.90;;;;;;4961515;28;20034;-91
2022/01/09 03:48:47;;;;;;;23.20;2.92;;;4.10;99.90;;;;;;4961548;28;20062;-91
2022/01/09 03:51:12;;;;;;;15.68;2.78;;;4.10;99.90;;;;;;4961411;28;20059;-91
2022/01/09 03:53:39;;;;;;;15.40;2.58;;;4.10;99.90;;;;;;4961509;28;20027;-92
2022/01/09 03:56:05;;;;;;;12.93;2.50;;;4.10;99.90;;;;;;4961402;28;20085;-92
2022/01/09 03:58:31;;;;;;;16.80;2.75;;;4.10;99.90;;;;;;4961730;28;20022;-89
2022/01/09 04:00:56;;;;;;;17.55;2.22;;;4.10;99.90;;;;;;4961423;28;20488;-94
2022/01/09 04:03:23;;;;;;;16.63;2.65;;;4.10;99.90;;;;;;4961627;28;20118;-93
2022/01/09 04:05:49;;;;;;;11.20;2.00;;;4.10;99.90;;;;;;4961688;28;20035;-94
2022/01/09 04:08:15;;;;;;;10.48;2.00;;;4.00;99.90;;;;;;4961367;28;20027;-93
2022/01/09 04:10:42;;;;;;;9.65;2.03;;;4.00;99.90;;;;;;4962748;28;20162;-92
2022/01/09 04:13:12;;;;;;;16.48;3.00;;;4.00;99.90;;;;;;4967939;28;20030;-94
2022/01/09 04:15:38;;;;;;;8.55;1.38;;;3.90;99.90;;;;;;4961003;28;20019;-92
2022/01/09 04:18:04;;;;;;;9.95;2.10;;;3.90;99.90;;;;;;4960815;28;20031;-92
2022/01/09 04:20:31;;;;;;;15.88;2.28;;;3.90;99.90;;;;;;4960877;28;20039;-92
2022/01/09 04:22:58;;;;;;;16.45;2.35;;;3.80;99.90;;;;;;4960721;28;20066;-93
2022/01/09 04:25:24;;;;;;;14.60;2.10;;;3.80;99.90;;;;;;4960179;28;20058;-92
2022/01/09 04:27:52;;;;;;;12.70;3.08;;;3.80;99.90;;;;;;4960570;28;20027;-91
2022/01/09 04:30:19;;;;;;;19.35;2.55;;;3.80;99.90;;;;;;4960450;28;20518;-91
2022/01/09 04:32:45;;;;;;;16.70;1.90;;;3.70;99.90;;;;;;4959830;28;20476;-91
2022/01/09 04:35:11;;;;;;;14.38;2.50;;;3.70;99.90;;;;;;4962974;28;20050;-91
2022/01/09 04:37:37;;;;;;;18.83;2.63;;;3.70;99.90;;;;;;4975888;28;20019;-92
2022/01/09 04:40:05;;;;;;;17.15;3.28;;;3.70;99.90;;;;;;4998637;28;20050;-91
2022/01/09 04:42:39;;;;;;;16.42;2.55;;;3.70;99.90;;;;;;4981673;28;20090;-92
2022/01/09 04:45:07;;;;;;;12.65;2.30;;;3.60;99.90;;;;;;4982335;28;20050;-93
2022/01/09 04:47:33;;;;;;;17.10;2.78;;;3.60;99.90;;;;;;4973940;28;20392;-92
2022/01/09 04:49:59;;;;;;;16.33;3.10;;;3.60;99.90;;;;;;4966862;28;20030;-92
2022/01/09 04:52:30;;;;;;;15.55;2.35;;;3.60;99.90;;;;;;4961788;28;20029;-91
2022/01/09 04:54:56;;;;;;;10.18;2.15;;;3.60;99.90;;;;;;4960645;28;20389;-93
2022/01/09 04:57:22;;;;;;;14.23;2.45;;;3.60;99.90;;;;;;4960548;28;20035;-93
2022/01/09 04:59:47;;;;;;;14.75;2.53;;;3.50;99.90;;;;;;4960406;28;20513;-92
2022/01/09 05:02:13;;;;;;;13.55;2.58;;;3.50;99.90;;;;;;4960389;28;20381;-91
2022/01/09 05:04:39;;;;;;;16.23;2.33;;;3.50;99.90;;;;;;4960330;28;20072;-91
2022/01/09 05:07:05;;;;;;;15.98;2.42;;;3.50;99.90;;;;;;4962202;28;20031;-91
2022/01/09 05:09:31;;;;;;;12.88;2.10;;;3.50;99.90;;;;;;4968137;28;20023;-91
2022/01/09 05:11:57;;;;;;;17.25;2.90;;;3.50;99.90;;;;;;4961253;28;20027;-93
2022/01/09 05:14:23;;;;;;;23.08;3.38;;;3.50;99.90;;;;;;4960203;28;20031;-92
2022/01/09 05:16:49;;;;;;;22.05;2.25;;;3.50;99.90;;;;;;4960139;28;20406;-92
2022/01/09 05:19:28;;;;;;;23.40;2.70;;;3.50;99.90;;;;;;4959867;28;20026;-92
2022/01/09 05:21:56;;;;;;;18.63;3.33;;;3.50;99.90;;;;;;4959890;28;20046;-91
2022/01/09 05:24:22;;;;;;;16.00;2.38;;;3.60;99.90;;;;;;4960033;28;20522;-91
2022/01/09 05:26:48;;;;;;;22.63;3.38;;;3.60;99.90;;;;;;4960564;28;20118;-91
2022/01/09 05:29:14;;;;;;;20.23;3.83;;;3.60;99.90;;;;;;4959932;28;20034;-93
2022/01/09 05:31:40;;;;;;;21.73;3.97;;;3.60;99.90;;;;;;4960107;28;20038;-93
2022/01/09 05:34:06;;;;;;;17.63;5.22;;;3.60;99.90;;;;;;4959612;28;20101;-92
2022/01/09 05:36:32;;;;;;;17.30;3.58;;;3.60;99.90;;;;;;4959898;28;20113;-92
2022/01/09 05:38:58;;;;;;;24.75;2.90;;;3.60;99.90;;;;;;4960152;28;20513;-91
2022/01/09 05:41:24;;;;;;;16.63;3.10;;;3.60;99.90;;;;;;4959920;28;20039;-93
2022/01/09 05:43:50;;;;;;;15.10;3.55;;;3.60;99.90;;;;;;4960488;28;20031;-92
2022/01/09 05:46:16;;;;;;;20.63;3.35;;;3.60;99.90;;;;;;4968463;28;20065;-92
2022/01/09 05:48:41;;;;;;;15.65;4.78;;;3.60;99.90;;;;;;4967796;28;20115;-91
2022/01/09 05:51:08;;;;;;;13.85;2.15;;;3.60;99.90;;;;;;4965954;28;20055;-93
2022/01/09 05:53:34;;;;;;;15.48;2.72;;;3.50;99.90;;;;;;4959198;28;20114;-92
2022/01/09 05:55:59;;;;;;;19.95;2.55;;;3.50;99.90;;;;;;4959563;28;20089;-92
2022/01/09 05:58:25;;;;;;;15.07;2.45;;;3.50;99.90;;;;;;4976909;28;20062;-92
2022/01/09 06:00:51;;;;;;;12.27;2.30;;;3.50;99.90;;;;;;4959421;28;20031;-92
2022/01/09 06:03:16;;;;;;;8.02;2.15;;;3.40;99.90;;;;;;4959115;28;20023;-93
2022/01/09 06:05:42;;;;;;;13.98;2.10;;;3.50;99.90;;;;;;4959262;28;20049;-92
2022/01/09 06:08:08;;;;;;;6.90;1.88;;;3.40;99.90;;;;;;4959632;28;20030;-93
2022/01/09 06:10:34;;;;;;;10.32;2.05;;;3.40;99.90;;;;;;4959926;28;20619;-92
2022/01/09 06:12:59;;;;;;;7.13;2.50;;;3.20;99.90;;;;;;4959436;28;20027;-92
2022/01/09 06:15:25;;;;;;;8.80;1.52;;;3.20;99.90;;;;;;4959452;28;20050;-92
2022/01/09 06:17:51;;;;;;;8.77;1.70;;;3.20;99.90;;;;;;4959004;28;20058;-92
2022/01/09 06:20:16;;;;;;;11.32;1.63;;;3.20;99.90;;;;;;4959062;28;20039;-91
2022/01/09 06:22:43;;;;;;;6.93;1.65;;;3.10;99.90;;;;;;4958666;28;20433;-91
2022/01/09 06:25:10;;;;;;;12.50;2.55;;;3.10;99.90;;;;;;4958914;28;20404;-91
2022/01/09 06:27:36;;;;;;;13.15;2.58;;;3.10;99.90;;;;;;4958592;28;20030;-93
2022/01/09 06:30:04;;;;;;;12.90;2.65;;;3.20;99.90;;;;;;4958559;28;20023;-91
2022/01/09 06:32:31;;;;;;;15.52;2.03;;;3.20;99.90;;;;;;4958265;28;20027;-91
2022/01/09 06:34:57;;;;;;;15.18;2.85;;;3.20;99.90;;;;;;4958715;28;20023;-92
2022/01/09 06:37:23;;;;;;;8.43;1.90;;;3.20;99.90;;;;;;4958403;28;20035;-92
2022/01/09 06:39:48;;;;;;;12.43;2.35;;;3.20;99.90;;;;;;4958267;28;20085;-90
2022/01/09 06:42:14;;;;;;;8.10;2.15;;;3.20;99.90;;;;;;4958619;28;20046;-91
2022/01/09 06:44:40;;;;;;;15.50;3.00;;;3.30;99.90;;;;;;4959052;28;20473;-92
2022/01/09 06:47:06;;;;;;;13.40;3.00;;;3.30;99.90;;;;;;4959884;28;20033;-92
2022/01/09 06:49:34;;;;;;;16.05;3.58;;;3.30;99.90;;;;;;4969241;28;20090;-92
2022/01/09 06:51:59;;;;;;;21.25;3.60;;;3.30;99.90;;;;;;4978640;28;20023;-91
2022/01/09 06:54:25;;;;;;;32.17;5.50;;;3.30;99.90;;;;;;4974534;28;20098;-91
2022/01/09 06:56:52;;;;;;;14.57;3.03;;;3.40;99.90;;;;;;4975359;28;20051;-92
2022/01/09 06:59:18;;;;;;;16.55;3.78;;;3.40;99.90;;;;;;4960869;28;20034;-91
2022/01/09 07:01:43;;;;;;;17.33;3.60;;;3.30;99.90;;;;;;4958235;28;20039;-91
2022/01/09 07:04:09;;;;;;;9.02;2.40;;;3.40;99.90;;;;;;4958663;28;20027;-92
2022/01/09 07:06:35;;;;;;;8.93;3.28;;;3.40;99.90;;;;;;4958992;28;20502;-92
2022/01/09 07:09:01;;;;;;;19.05;3.92;;;3.30;99.90;;;;;;4975776;28;20023;-91
2022/01/09 07:11:27;;;;;;;14.57;3.60;;;3.40;99.90;;;;;;4977499;28;20109;-91
2022/01/09 07:13:53;;;;;;;14.90;3.67;;;3.30;99.90;;;;;;4979948;28;20049;-88
2022/01/09 07:16:18;;;;;;;23.58;3.90;;;3.40;99.90;;;;;;4966567;28;20062;-92
2022/01/09 07:18:44;;;;;;;18.33;4.05;;;3.40;99.90;;;;;;4960586;28;20074;-89
2022/01/09 07:21:10;;;;;;;12.50;2.95;;;3.30;99.90;;;;;;4969579;28;20449;-90
2022/01/09 07:23:35;;;;;;;15.77;3.35;;;3.30;99.90;;;;;;4973461;28;20038;-91
2022/01/09 07:26:01;;;;;;;12.88;3.10;;;3.30;99.90;;;;;;4973003;28;20038;-92
2022/01/09 07:28:27;;;;;;;19.50;4.45;;;3.40;99.90;;;;;;4964335;28;20050;-91
2022/01/09 07:30:53;;;;;;;15.10;2.78;;;3.40;99.90;;;;;;4958638;28;20058;-92
2022/01/09 07:33:18;;;;;;;20.73;2.78;;;3.40;99.90;;;;;;4967810;28;20461;-92
2022/01/09 07:35:44;;;;;;;14.50;2.80;;;3.40;99.90;;;;;;4958095;28;20037;-91
2022/01/09 07:38:10;;;;;;;14.38;2.30;;;3.40;99.90;;;;;;4958233;28;20015;-92
2022/01/09 07:40:35;;;;;;;12.88;2.38;;;3.40;99.90;;;;;;4957823;28;20027;-93
2022/01/09 07:43:01;;;;;;;15.13;2.83;;;3.40;99.90;;;;;;4957972;28;20050;-93
2022/01/09 07:45:29;;;;;;;13.10;3.17;;;3.40;99.90;;;;;;4957678;28;20026;-94
2022/01/09 07:47:57;;;;;;;14.82;2.30;;;3.40;99.90;;;;;;4964736;28;20049;-92
2022/01/09 07:50:23;;;;;;;13.98;3.05;;;3.30;99.90;;;;;;4971240;28;20033;-93
2022/01/09 07:52:50;;;;;;;19.17;3.28;;;3.40;99.90;;;;;;4957030;28;20118;-92
2022/01/09 07:55:18;;;;;;;17.75;3.03;;;3.30;99.90;;;;;;4956843;28;20038;-92
2022/01/09 07:57:44;;;;;;;13.30;2.70;;;3.40;99.90;;;;;;4954910;28;20109;-92
2022/01/09 08:00:12;;;;;;;15.82;3.13;;;3.30;99.90;;;;;;4956771;28;20023;-93
2022/01/09 08:02:38;;;;;;;25.42;3.97;;;3.30;99.90;;;;;;4962548;28;20045;-92
2022/01/09 08:05:04;;;;;;;12.50;4.70;;;3.30;99.90;;;;;;4976578;28;20027;-92
2022/01/09 08:07:30;;;;;;;11.70;3.50;;;3.30;99.90;;;;;;4964291;28;20023;-92
2022/01/09 08:09:56;;;;;;;5.53;2.22;;;3.30;99.90;;;;;;4959994;28;20109;-93
2022/01/09 08:12:21;;;;;;;11.63;3.10;;;3.30;99.90;;;;;;4963201;28;20034;-93
2022/01/09 08:14:47;;;;;;;16.88;2.95;;;3.30;99.90;;;;;;4959870;28;20081;-91
2022/01/09 08:17:13;;;;;;;14.50;3.38;;;3.30;99.90;;;;;;4958010;28;20097;-91
2022/01/09 08:19:40;;;;;;;20.08;3.60;;;3.30;99.90;;;;;;4962386;28;20039;-92
2022/01/09 08:22:06;;;;;;;23.45;3.72;;;3.30;99.90;;;;;;4959623;28;20030;-90
2022/01/09 08:24:33;;;;;;;15.18;3.35;;;3.30;99.90;;;;;;4960339;28;20021;-91
2022/01/09 08:26:59;;;;;;;12.07;2.72;;;3.20;99.90;;;;;;4959583;28;20057;-90
2022/01/09 08:29:25;;;;;;;16.17;2.97;;;3.30;99.90;;;;;;4959843;28;20027;-92
2022/01/09 08:31:51;;;;;;;16.98;3.17;;;3.30;99.90;;;;;;4960620;28;20033;-93
2022/01/09 08:34:17;;;;;;;22.80;3.00;;;3.30;99.90;;;;;;4974586;28;20274;-92
2022/01/09 08:36:43;;;;;;;26.17;12.18;;;3.30;99.90;;;;;;4970087;28;20027;-93
2022/01/09 08:39:12;;;;;;;11.88;3.38;;;3.30;99.90;;;;;;4979182;28;20046;-93
2022/01/09 08:41:38;;;;;;;15.55;3.95;;;3.30;99.90;;;;;;4982235;28;20031;-92
2022/01/09 08:44:05;;;;;;;15.68;4.38;;;3.30;99.90;;;;;;4956311;28;20030;-92
2022/01/09 08:46:32;;;;;;;20.27;3.28;;;3.30;99.90;;;;;;4959248;28;20086;-92
2022/01/09 08:49:06;;;;;;;17.35;3.58;;;3.40;99.90;;;;;;4958410;28;20027;-91
2022/01/09 08:51:32;;;;;;;18.17;3.42;;;3.30;99.90;;;;;;4961016;28;20051;-93
2022/01/09 08:54:05;;;;;;;22.02;4.20;;;3.30;99.90;;;;;;4961589;28;20126;-91
2022/01/09 08:56:32;;;;;;;16.85;2.70;;;3.30;99.90;;;;;;4986057;28;20057;-91
2022/01/09 08:59:01;;;;;;;16.02;2.50;;;3.40;99.90;;;;;;4978733;28;20019;-91
2022/01/09 09:01:29;;;;;;;15.93;2.17;;;3.40;99.90;;;;;;4968440;28;20500;-91
2022/01/09 09:03:55;;;;;;;10.90;1.75;;;3.50;99.90;;;;;;4961429;28;20399;-91
2022/01/09 09:06:23;;;;;;;12.13;2.17;;;3.50;99.90;;;;;;4967913;28;20031;-91
2022/01/09 09:08:49;;;;;;;11.90;1.80;;;3.50;99.90;;;;;;4956735;28;20038;-90
2022/01/09 09:11:15;;;;;;;7.43;1.77;;;3.50;99.90;;;;;;4958923;28;20031;-91
2022/01/09 09:13:40;;;;;;;17.30;2.53;;;3.50;99.90;;;;;;4958359;28;20121;-90
2022/01/09 09:16:08;;;;;;;17.83;2.45;;;3.60;99.90;;;;;;4957514;28;20027;-93
2022/01/09 09:18:34;;;;;;;14.10;2.33;;;3.60;99.90;;;;;;4958013;28;20481;-90
2022/01/09 09:21:01;;;;;;;17.45;1.83;;;3.60;99.90;;;;;;4957678;28;20037;-91
2022/01/09 09:23:27;;;;;;;11.52;1.60;;;3.60;99.90;;;;;;4957502;28;20023;-91
2022/01/09 09:25:52;;;;;;;17.35;2.28;;;3.60;99.90;;;;;;4958344;28;20388;-92
2022/01/09 09:28:18;;;;;;;14.35;1.98;;;3.70;99.90;;;;;;4956619;28;20110;-92
2022/01/09 09:30:44;;;;;;;4.85;1.48;;;3.70;99.90;;;;;;4957598;28;20067;-91
2022/01/09 09:33:10;;;;;;;15.93;2.60;;;3.70;99.90;;;;;;4956066;28;20027;-91
2022/01/09 09:35:36;;;;;;;10.63;1.48;;;3.70;99.90;;;;;;4960665;28;20075;-91
2022/01/09 09:38:04;;;;;;;10.75;2.75;;;3.70;99.90;;;;;;4966221;28;20015;-91
2022/01/09 09:40:29;;;;;;;12.38;2.35;;;3.70;99.90;;;;;;4959508;28;20038;-92
2022/01/09 09:42:56;;;;;;;13.35;2.08;;;3.70;99.90;;;;;;4957716;28;20027;-91
2022/01/09 09:45:23;;;;;;;17.38;2.67;;;3.70;99.90;;;;;;4958286;28;20030;-90
2022/01/09 09:47:50;;;;;;;8.80;1.70;;;3.70;99.90;;;;;;4961546;28;20019;-90
2022/01/09 09:50:18;;;;;;;20.63;3.40;;;3.70;99.90;;;;;;4972302;28;20035;-91
2022/01/09 09:52:45;;;;;;;15.63;2.88;;;3.80;99.90;;;;;;4971560;28;20061;-90
2022/01/09 09:55:12;;;;;;;25.80;2.83;;;3.80;99.90;;;;;;4967814;28;20058;-91
2022/01/09 09:57:41;;;;;;;16.92;2.75;;;3.90;99.90;;;;;;4977542;28;20728;-90
2022/01/09 10:00:16;;;;;;;15.68;2.08;;;3.90;99.90;;;;;;4974800;28;20458;-90
2022/01/09 10:02:50;;;;;;;23.45;2.38;;;4.10;99.90;;;;;;4974112;28;20073;-90
2022/01/09 10:05:23;;;;;;;23.45;3.67;;;4.20;99.90;;;;;;4976229;28;20042;-90
2022/01/09 10:08:04;;;;;;;16.40;2.63;;;4.50;99.90;;;;;;4969811;28;20026;-91
2022/01/09 10:10:32;;;;;;;17.98;3.15;;;4.60;99.90;;;;;;4966871;28;20022;-94
2022/01/09 10:13:12;;;;;;;15.77;2.63;;;4.70;99.90;;;;;;4970431;28;20026;-92
2022/01/09 10:15:50;;;;;;;17.75;2.22;;;4.70;99.90;;;;;;4981328;28;20062;-92
2022/01/09 10:18:45;;;;;;;19.95;3.55;;;4.90;99.90;;;;;;4965715;28;20018;-93
2022/01/09 10:21:19;;;;;;;19.67;3.63;;;5.20;99.90;;;;;;4984860;28;20476;-91
2022/01/09 10:24:08;;;;;;;14.10;2.65;;;5.60;99.90;;;;;;4989546;28;20074;-92
2022/01/09 10:26:36;;;;;;;15.23;1.90;;;6.00;99.90;;;;;;4977337;28;20073;-92
2022/01/09 10:29:04;;;;;;;11.82;1.80;;;6.10;99.90;;;;;;4975526;28;20019;-91
2022/01/09 10:31:30;;;;;;;18.27;2.70;;;6.30;99.90;;;;;;4958953;28;20077;-92
2022/01/09 10:33:58;;;;;;;17.52;3.47;;;6.40;99.90;;;;;;4984732;28;20023;-95
2022/01/09 10:36:43;;;;;;;14.00;2.67;;;6.40;99.90;;;;;;4961244;28;20026;-92
2022/01/09 10:39:18;;;;;;;12.65;3.15;;;6.40;99.90;;;;;;4973005;28;20038;-93
2022/01/09 10:41:55;;;;;;;14.48;2.80;;;6.40;99.90;;;;;;4965770;28;20421;-93
2022/01/09 10:44:27;;;;;;;12.85;2.97;;;6.30;99.90;;;;;;4984001;28;20055;-91
2022/01/09 10:46:58;;;;;;;15.43;2.85;;;6.30;99.90;;;;;;4968344;28;20018;-93
2022/01/09 10:49:34;;;;;;;20.63;2.80;;;6.30;99.90;;;;;;4965084;28;20030;-92
2022/01/09 10:52:21;;;;;;;15.50;3.35;;;6.30;99.90;;;;;;4970000;28;20023;-91
2022/01/09 10:54:49;;;;;;;16.50;2.55;;;6.20;99.90;;;;;;4971408;28;20053;-92
2022/01/09 10:57:18;;;;;;;21.13;4.05;;;6.10;99.90;;;;;;4965254;28;20050;-93
2022/01/09 10:59:47;;;;;;;15.77;2.40;;;6.00;99.90;;;;;;4965550;28;20042;-91
2022/01/09 11:02:13;;;;;;;18.23;2.90;;;5.90;99.90;;;;;;4979730;28;20039;-92
2022/01/09 11:04:43;;;;;;;16.13;3.55;;;5.80;99.90;;;;;;4971229;28;20030;-93
2022/01/09 11:07:10;;;;;;;12.15;2.72;;;5.60;99.90;;;;;;4971904;28;20023;-92
2022/01/09 11:09:42;;;;;;;17.95;2.75;;;5.50;99.90;;;;;;4970477;28;20023;-92
2022/01/09 11:12:09;;;;;;;17.13;2.88;;;5.50;99.90;;;;;;4960067;28;20030;-92
2022/01/09 11:14:42;;;;;;;17.42;3.35;;;5.40;99.90;;;;;;4976941;28;20120;-93
2022/01/09 11:17:09;;;;;;;15.57;2.47;;;5.40;99.90;;;;;;4962478;28;20116;-92
2022/01/09 11:19:36;;;;;;;16.58;2.65;;;5.30;99.90;;;;;;4964271;28;20054;-93
2022/01/09 11:22:06;;;;;;;19.52;2.83;;;5.30;99.90;;;;;;4958185;28;20035;-92
2022/01/09 11:24:43;;;;;;;23.02;4.57;;;5.30;99.90;;;;;;4971959;28;20022;-93
2022/01/09 11:27:09;;;;;;;16.38;3.50;;;5.20;99.90;;;;;;4959736;28;20026;-91
2022/01/09 11:29:59;;;;;;;18.25;2.50;;;5.20;99.90;;;;;;4964538;28;20046;-92
2022/01/09 11:32:37;;;;;;;21.05;4.70;;;5.20;99.90;;;;;;4974238;28;20324;-93
2022/01/09 11:35:10;;;;;;;27.98;5.70;;;5.20;99.90;;;;;;4962390;28;20082;-93
2022/01/09 11:38:01;;;;;;;14.38;2.35;;;5.10;99.90;;;;;;4967279;28;20030;-92
2022/01/09 11:40:33;;;;;;;17.33;2.45;;;5.10;99.90;;;;;;4961635;28;20524;-92
2022/01/09 11:43:17;;;;;;;25.55;3.35;;;5.10;99.90;;;;;;4961221;28;20031;-93
2022/01/09 11:46:01;;;;;;;12.50;2.25;;;5.20;99.90;;;;;;4959910;28;20027;-93
2022/01/09 11:48:51;;;;;;;20.15;2.88;;;5.10;99.90;;;;;;4961577;28;20014;-93
2022/01/09 11:51:21;;;;;;;17.55;3.13;;;5.20;99.90;;;;;;4959031;28;20035;-92
2022/01/09 11:54:02;;;;;;;27.30;2.80;;;5.20;99.90;;;;;;4960912;28;20070;-91
2022/01/09 11:56:47;;;;;;;30.80;4.60;;;5.20;99.90;;;;;;4960406;28;20094;-92
2022/01/09 11:59:27;;;;;;;22.98;5.20;;;5.20;99.90;;;;;;4961072;28;20030;-92
2022/01/09 12:01:59;;;;;;;33.22;5.68;;;5.20;99.90;;;;;;4973489;28;20088;-91
2022/01/09 12:04:34;;;;;;;22.63;5.38;;;5.30;99.90;;;;;;4960472;28;20065;-93
2022/01/09 12:07:08;;;;;;;23.73;4.15;;;5.40;99.90;;;;;;4964799;28;20049;-92
2022/01/09 12:09:41;;;;;;;29.73;4.40;;;5.60;99.90;;;;;;4967844;28;20046;-93
2022/01/09 12:12:20;;;;;;;24.25;5.95;;;5.70;99.90;;;;;;4958957;28;20033;-92
2022/01/09 12:14:51;;;;;;;29.27;8.30;;;5.80;99.90;;;;;;4957545;28;20200;-90
2022/01/09 12:17:25;;;;;;;28.88;6.28;;;5.80;99.90;;;;;;4973521;28;20606;-92
2022/01/09 12:20:22;;;;;;;23.63;4.55;;;5.70;99.90;;;;;;4958161;28;20061;-91
2022/01/09 12:22:49;;;;;;;26.50;6.10;;;5.70;99.90;;;;;;4974563;28;20039;-92
2022/01/09 12:25:24;;;;;;;23.77;5.57;;;5.70;99.90;;;;;;4958123;28;20500;-94
2022/01/09 12:27:57;;;;;;;29.15;6.72;;;5.60;99.90;;;;;;4968097;28;20023;-93
2022/01/09 12:30:49;;;;;;;30.67;8.00;;;5.60;99.90;;;;;;4977157;28;20038;-93
2022/01/09 12:33:16;;;;;;;22.98;4.18;;;5.60;99.90;;;;;;4981052;28;20023;-92
2022/01/09 12:35:55;;;;;;;19.50;3.20;;;5.60;99.90;;;;;;4980714;28;20033;-92
2022/01/09 12:38:24;;;;;;;17.80;3.45;;;5.50;99.90;;;;;;4973974;28;20037;-91
2022/01/09 12:40:57;;;;;;;23.50;3.97;;;5.50;99.90;;;;;;4965679;28;20094;-91
2022/01/09 12:43:26;;;;;;;29.65;4.32;;;5.50;99.90;;;;;;4964346;28;20023;-92
2022/01/09 12:45:52;;;;;;;21.10;3.10;;;5.50;99.90;;;;;;4963058;28;20026;-92
2022/01/09 12:48:19;;;;;;;19.88;4.50;;;5.50;99.90;;;;;;4961956;28;20066;-93
2022/01/09 12:50:46;;;;;;;16.45;4.40;;;5.60;99.90;;;;;;4962308;28;20030;-93
2022/01/09 12:53:28;;;;;;;23.92;4.10;;;5.50;99.90;;;;;;4963161;28;20031;-93
2022/01/09 12:56:07;;;;;;;26.10;5.40;;;5.50;99.90;;;;;;4965543;28;20448;-92
2022/01/09 12:58:48;;;;;;;49.55;15.05;;;5.60;99.90;;;;;;4965797;28;20042;-93